Time;durP1;ratioP1;P1;durP2;ratioP2;P2;SDS_P1;SDS_P2;PMS_P1;PMS_P2;Temp;Humidity;BMP_temperature;BMP_pressure;BME280_temperature;BME280_humidity;BME280_pressure;Samples;Min_cycle;Max_cycle;Signal;HPM_P1;HPM_P2
2023/07/21 00:00:58;;;;;;;1.80;1.80;;;15.60;61.80;;;;;;6258648;28;20242;-79
2023/07/21 00:04:01;;;;;;;2.40;2.20;;;15.60;61.70;;;;;;6277248;28;20246;-81
2023/07/21 00:07:05;;;;;;;1.97;1.87;;;15.50;61.60;;;;;;6264523;28;20229;-82
2023/07/21 00:10:11;;;;;;;1.90;1.90;;;15.50;61.80;;;;;;6272023;28;20229;-78
2023/07/21 00:13:15;;;;;;;2.03;2.03;;;15.40;62.00;;;;;;6261898;28;20238;-80
2023/07/21 00:16:19;;;;;;;2.10;2.10;;;15.40;62.10;;;;;;6275007;28;20234;-82
2023/07/21 00:19:22;;;;;;;1.90;1.90;;;15.40;62.40;;;;;;6280225;28;20245;-78
2023/07/21 00:22:25;;;;;;;1.70;1.70;;;15.30;62.50;;;;;;6280196;28;20390;-81
2023/07/21 00:25:30;;;;;;;2.00;2.00;;;15.30;62.60;;;;;;6264838;28;20760;-82
2023/07/21 00:28:33;;;;;;;2.30;2.20;;;15.20;62.80;;;;;;6269521;28;20288;-79
2023/07/21 00:31:38;;;;;;;1.70;1.70;;;15.20;63.00;;;;;;6273265;28;20248;-79
2023/07/21 00:34:42;;;;;;;2.20;2.10;;;15.00;63.20;;;;;;6279781;28;20270;-81
2023/07/21 00:37:45;;;;;;;2.03;2.00;;;15.00;63.50;;;;;;6276420;28;20457;-83
2023/07/21 00:40:49;;;;;;;2.30;2.20;;;15.00;63.70;;;;;;6264885;28;20226;-80
2023/07/21 00:43:52;;;;;;;2.07;2.07;;;14.90;63.70;;;;;;6254491;28;20527;-82
2023/07/21 00:46:56;;;;;;;2.30;2.30;;;14.80;64.00;;;;;;6272116;28;20682;-80
2023/07/21 00:50:01;;;;;;;2.10;2.10;;;14.80;64.20;;;;;;6258422;28;20697;-80
2023/07/21 00:53:05;;;;;;;2.40;2.30;;;14.80;64.40;;;;;;6272953;28;20254;-80
2023/07/21 00:56:09;;;;;;;2.13;2.13;;;14.70;64.40;;;;;;6280265;28;20313;-81
2023/07/21 00:59:13;;;;;;;2.00;2.00;;;14.70;64.60;;;;;;6260863;28;20514;-79
2023/07/21 01:02:16;;;;;;;2.20;2.10;;;14.60;64.80;;;;;;6254058;28;20311;-82
2023/07/21 01:05:20;;;;;;;2.20;2.20;;;14.60;65.00;;;;;;6260064;28;20855;-80
2023/07/21 01:08:25;;;;;;;2.20;2.20;;;14.50;65.30;;;;;;6272458;28;20229;-81
2023/07/21 01:11:30;;;;;;;2.50;2.30;;;14.50;65.40;;;;;;6261842;28;20253;-80
2023/07/21 01:14:33;;;;;;;2.30;2.20;;;14.50;65.70;;;;;;6265128;28;20234;-77
2023/07/21 01:17:37;;;;;;;2.40;2.40;;;14.40;65.80;;;;;;6264495;28;20311;-82
2023/07/21 01:20:43;;;;;;;2.40;2.20;;;14.40;65.90;;;;;;6268465;28;20348;-78
2023/07/21 01:23:57;;;;;;;2.23;2.13;;;14.30;66.10;;;;;;6259599;28;20238;-79
2023/07/21 01:27:03;;;;;;;2.10;2.10;;;14.30;66.30;;;;;;6252203;28;20235;-79
2023/07/21 01:30:10;;;;;;;2.17;2.17;;;14.30;66.50;;;;;;6251890;28;20230;-82
2023/07/21 01:33:14;;;;;;;2.27;2.27;;;14.30;66.50;;;;;;6255286;28;20325;-83
2023/07/21 01:36:20;;;;;;;2.33;2.33;;;14.20;66.40;;;;;;6274004;28;20242;-82
2023/07/21 01:39:23;;;;;;;2.30;2.23;;;14.20;66.40;;;;;;6272641;28;20234;-80
2023/07/21 01:42:30;;;;;;;2.37;2.27;;;14.20;66.50;;;;;;6259473;28;20254;-79
2023/07/21 01:45:34;;;;;;;2.30;2.30;;;14.10;66.70;;;;;;6269971;28;20234;-81
2023/07/21 01:48:38;;;;;;;2.07;2.03;;;14.10;66.80;;;;;;6283509;28;20828;-79
2023/07/21 01:51:41;;;;;;;2.30;2.20;;;14.10;66.90;;;;;;6267269;28;20310;-79
2023/07/21 01:54:48;;;;;;;2.50;2.40;;;14.00;67.00;;;;;;6280448;28;20237;-80
2023/07/21 01:57:59;;;;;;;2.40;2.40;;;14.00;67.20;;;;;;6255174;28;20308;-82
2023/07/21 02:01:05;;;;;;;2.27;2.27;;;14.00;67.40;;;;;;6264175;28;20237;-81
2023/07/21 02:04:08;;;;;;;2.40;2.40;;;13.90;67.50;;;;;;6259110;28;20248;-81
2023/07/21 02:07:12;;;;;;;2.17;2.17;;;13.90;67.70;;;;;;6258315;28;20229;-83
2023/07/21 02:10:15;;;;;;;2.30;2.20;;;13.90;67.90;;;;;;6262508;28;20248;-78
2023/07/21 02:13:20;;;;;;;2.60;2.40;;;13.90;67.90;;;;;;6275269;28;20244;-78
2023/07/21 02:16:23;;;;;;;2.07;2.07;;;13.90;67.90;;;;;;6266700;28;20325;-81
2023/07/21 02:19:26;;;;;;;2.47;2.47;;;13.90;67.90;;;;;;6268331;28;20233;-82
2023/07/21 02:22:29;;;;;;;2.20;2.20;;;13.90;67.90;;;;;;6274503;28;20846;-81
2023/07/21 02:25:33;;;;;;;2.83;2.73;;;13.90;68.00;;;;;;6260254;28;20273;-83
2023/07/21 02:28:38;;;;;;;2.53;2.43;;;13.90;68.30;;;;;;6246779;28;20246;-79
2023/07/21 02:31:41;;;;;;;2.77;2.70;;;14.00;68.50;;;;;;6268771;28;20234;-83
2023/07/21 02:34:44;;;;;;;2.90;2.80;;;14.00;68.40;;;;;;6267695;28;20317;-81
2023/07/21 02:37:47;;;;;;;2.77;2.57;;;14.10;68.30;;;;;;6277981;28;20613;-79
2023/07/21 02:40:51;;;;;;;3.03;2.60;;;14.10;68.20;;;;;;6247805;28;20283;-79
2023/07/21 02:43:56;;;;;;;2.97;2.77;;;14.20;68.10;;;;;;6276914;28;20237;-82
2023/07/21 02:46:59;;;;;;;2.70;2.63;;;14.20;67.90;;;;;;6262475;28;20242;-81
2023/07/21 02:50:03;;;;;;;2.50;2.40;;;14.10;67.70;;;;;;6247827;28;20814;-81
2023/07/21 02:53:06;;;;;;;2.37;2.37;;;14.10;67.50;;;;;;6260772;28;20279;-81
2023/07/21 02:56:10;;;;;;;2.20;2.20;;;14.10;67.40;;;;;;6255535;28;20320;-80
2023/07/21 02:59:15;;;;;;;2.37;2.37;;;14.00;67.40;;;;;;6273361;28;20234;-81
2023/07/21 03:02:18;;;;;;;2.40;2.30;;;14.00;67.50;;;;;;6271090;28;20319;-80
2023/07/21 03:05:22;;;;;;;2.57;2.47;;;13.90;67.60;;;;;;6268055;28;20248;-81
2023/07/21 03:08:28;;;;;;;2.40;2.30;;;13.90;67.70;;;;;;6258716;28;20917;-82
2023/07/21 03:11:32;;;;;;;3.07;2.97;;;13.90;67.70;;;;;;6269372;28;20268;-83
2023/07/21 03:14:38;;;;;;;2.63;2.60;;;13.80;67.80;;;;;;6275121;28;20310;-81
2023/07/21 03:17:41;;;;;;;2.80;2.70;;;13.80;67.80;;;;;;6251964;28;20271;-80
2023/07/21 03:20:44;;;;;;;2.50;2.40;;;13.80;68.00;;;;;;6253337;28;20994;-81
2023/07/21 03:23:47;;;;;;;2.40;2.40;;;13.70;68.20;;;;;;6250356;28;20273;-82
2023/07/21 03:26:50;;;;;;;2.97;2.87;;;13.70;68.20;;;;;;6260149;28;20233;-82
2023/07/21 03:29:55;;;;;;;2.80;2.70;;;13.70;68.20;;;;;;6269684;28;20765;-80
2023/07/21 03:32:58;;;;;;;2.57;2.50;;;13.70;68.40;;;;;;6244118;28;20265;-79
2023/07/21 03:36:03;;;;;;;2.63;2.63;;;13.60;68.40;;;;;;6246105;28;20230;-81
2023/07/21 03:39:06;;;;;;;2.50;2.50;;;13.70;68.60;;;;;;6245275;28;20240;-78
2023/07/21 03:42:09;;;;;;;3.17;3.07;;;13.70;68.70;;;;;;6244313;28;20247;-82
2023/07/21 03:45:14;;;;;;;3.17;3.07;;;13.70;68.60;;;;;;6231674;28;20271;-82
2023/07/21 03:48:17;;;;;;;3.90;3.70;;;13.70;68.60;;;;;;6239459;28;20246;-81
2023/07/21 03:51:20;;;;;;;4.23;4.03;;;13.70;68.60;;;;;;6245963;28;20303;-80
2023/07/21 03:54:23;;;;;;;4.43;4.13;;;13.80;68.50;;;;;;6255577;28;20367;-81
2023/07/21 03:57:27;;;;;;;3.83;3.73;;;13.80;68.50;;;;;;6256791;28;20923;-78
2023/07/21 04:00:31;;;;;;;5.00;4.50;;;13.90;68.50;;;;;;6260953;28;20253;-79
2023/07/21 04:03:34;;;;;;;4.20;3.90;;;13.90;68.40;;;;;;6267879;28;20292;-80
2023/07/21 04:06:38;;;;;;;4.07;3.80;;;13.90;68.50;;;;;;6276117;28;20272;-79
2023/07/21 04:09:41;;;;;;;5.03;4.63;;;14.00;68.40;;;;;;6270190;28;20289;-80
2023/07/21 04:12:44;;;;;;;3.70;3.50;;;14.00;68.30;;;;;;6264974;28;20263;-80
2023/07/21 04:15:51;;;;;;;4.17;3.90;;;14.00;68.20;;;;;;6256330;28;20283;-80
2023/07/21 04:18:55;;;;;;;4.23;3.87;;;14.10;68.20;;;;;;6244948;28;20237;-78
2023/07/21 04:22:00;;;;;;;4.53;4.33;;;14.20;68.30;;;;;;6236117;28;20251;-78
2023/07/21 04:25:03;;;;;;;3.37;3.20;;;14.20;68.20;;;;;;6244134;28;20392;-79
2023/07/21 04:28:06;;;;;;;3.97;3.77;;;14.30;68.10;;;;;;6227669;28;20236;-79
2023/07/21 04:31:11;;;;;;;3.50;3.40;;;14.40;68.10;;;;;;6239913;28;20650;-79
2023/07/21 04:34:14;;;;;;;3.50;3.40;;;14.40;68.10;;;;;;6241249;28;20880;-78
2023/07/21 04:37:17;;;;;;;3.67;3.57;;;14.50;68.10;;;;;;6241533;28;20329;-78
2023/07/21 04:40:21;;;;;;;4.00;3.70;;;14.60;68.20;;;;;;6234133;28;20231;-81
2023/07/21 04:43:24;;;;;;;3.77;3.47;;;14.80;68.30;;;;;;6227102;28;20250;-78
2023/07/21 04:46:28;;;;;;;5.03;4.60;;;14.90;68.30;;;;;;6222020;28;20235;-82
2023/07/21 04:49:31;;;;;;;4.50;4.20;;;15.10;68.20;;;;;;6233646;28;20730;-80
2023/07/21 04:52:37;;;;;;;4.67;4.37;;;15.30;68.20;;;;;;6232847;28;20233;-79
2023/07/21 04:55:41;;;;;;;5.40;4.93;;;15.50;68.20;;;;;;6240058;28;20239;-78
2023/07/21 04:58:44;;;;;;;4.83;4.60;;;15.80;67.70;;;;;;6236441;28;20273;-80
2023/07/21 05:01:49;;;;;;;5.53;5.23;;;16.00;67.20;;;;;;6234304;28;20295;-79
2023/07/21 05:04:53;;;;;;;5.40;5.00;;;16.10;66.80;;;;;;6229574;28;20241;-78
2023/07/21 05:07:59;;;;;;;4.97;4.57;;;16.30;66.40;;;;;;6227690;28;20230;-79
2023/07/21 05:11:03;;;;;;;7.50;4.90;;;16.40;65.80;;;;;;6233278;28;20525;-81
2023/07/21 05:14:05;;;;;;;4.10;3.90;;;16.20;65.40;;;;;;6234643;28;20239;-78
2023/07/21 05:17:10;;;;;;;4.20;4.07;;;16.30;65.70;;;;;;6243319;28;20249;-78
2023/07/21 05:20:13;;;;;;;6.03;4.17;;;16.30;65.80;;;;;;6238659;28;20246;-80
2023/07/21 05:23:17;;;;;;;5.10;4.60;;;16.30;65.30;;;;;;6242401;28;20230;-82
2023/07/21 05:26:21;;;;;;;4.20;4.00;;;16.20;65.50;;;;;;6248299;28;20720;-80
2023/07/21 05:29:24;;;;;;;3.60;3.40;;;16.20;65.60;;;;;;6238326;28;20307;-80
2023/07/21 05:32:29;;;;;;;4.27;4.07;;;16.20;65.60;;;;;;6234595;28;20266;-79
2023/07/21 05:35:32;;;;;;;3.77;3.57;;;16.20;65.60;;;;;;6237915;28;20249;-81
2023/07/21 05:38:35;;;;;;;3.90;3.80;;;16.30;65.60;;;;;;6237665;28;20266;-77
2023/07/21 05:41:39;;;;;;;4.43;4.13;;;16.40;65.70;;;;;;6232038;28;20238;-78
2023/07/21 05:44:45;;;;;;;4.23;3.83;;;16.40;65.60;;;;;;6253678;28;20233;-80
2023/07/21 05:47:50;;;;;;;4.63;3.80;;;16.40;65.40;;;;;;6275123;28;20241;-79
2023/07/21 05:50:53;;;;;;;4.73;4.17;;;16.50;65.30;;;;;;6244089;28;20265;-79
2023/07/21 05:53:56;;;;;;;5.00;3.80;;;16.60;65.30;;;;;;6250737;28;20242;-79
2023/07/21 05:56:59;;;;;;;6.07;5.17;;;16.70;65.10;;;;;;6262051;28;20234;-80
2023/07/21 06:00:04;;;;;;;7.87;4.80;;;16.80;64.40;;;;;;6244517;28;20235;-77
2023/07/21 06:03:09;;;;;;;5.40;4.67;;;16.80;64.30;;;;;;6253534;28;20291;-80
2023/07/21 06:06:12;;;;;;;4.53;4.17;;;16.80;64.20;;;;;;6250642;28;20239;-76
2023/07/21 06:09:15;;;;;;;4.47;4.27;;;16.90;64.20;;;;;;6251338;28;20237;-77
2023/07/21 06:12:19;;;;;;;4.50;4.07;;;17.00;63.70;;;;;;6237531;28;20311;-79
2023/07/21 06:15:24;;;;;;;7.17;4.23;;;17.00;63.40;;;;;;6244857;28;20610;-78
2023/07/21 06:18:28;;;;;;;5.33;4.03;;;17.10;62.40;;;;;;6237579;28;20300;-80
2023/07/21 06:21:32;;;;;;;6.60;4.20;;;17.20;62.40;;;;;;6228861;28;20251;-82
2023/07/21 06:24:35;;;;;;;13.17;5.17;;;17.20;61.90;;;;;;6242035;28;20256;-77
2023/07/21 06:27:38;;;;;;;6.07;4.67;;;17.10;62.50;;;;;;6247002;28;20242;-77
2023/07/21 06:30:41;;;;;;;6.07;4.87;;;17.10;62.60;;;;;;6233420;28;20369;-80
2023/07/21 06:33:46;;;;;;;8.53;5.47;;;17.00;63.20;;;;;;6233480;28;20678;-80
2023/07/21 06:36:49;;;;;;;5.40;5.10;;;17.00;63.20;;;;;;6236666;28;20328;-79
2023/07/21 06:39:52;;;;;;;5.33;4.80;;;17.00;63.20;;;;;;6246519;28;20387;-78
2023/07/21 06:42:55;;;;;;;6.13;5.30;;;17.00;63.50;;;;;;6232169;28;22941;-80
2023/07/21 06:45:59;;;;;;;6.97;5.87;;;17.10;63.80;;;;;;6232114;28;20642;-80
2023/07/21 06:49:03;;;;;;;14.90;5.90;;;17.10;63.60;;;;;;6239080;28;20237;-77
2023/07/21 06:52:09;;;;;;;8.47;6.77;;;17.10;62.80;;;;;;6247544;28;20413;-79
2023/07/21 06:55:12;;;;;;;6.43;5.80;;;17.00;62.60;;;;;;6234824;28;20531;-82
2023/07/21 06:58:15;;;;;;;9.07;7.80;;;17.10;62.90;;;;;;6235070;28;20310;-78
2023/07/21 07:01:19;;;;;;;12.43;9.53;;;17.20;62.80;;;;;;6235580;28;20613;-76
2023/07/21 07:04:25;;;;;;;10.53;9.43;;;17.30;62.60;;;;;;6216973;28;20235;-79
2023/07/21 07:07:28;;;;;;;10.00;8.33;;;17.50;62.30;;;;;;6228186;28;20242;-79
2023/07/21 07:10:32;;;;;;;9.03;8.07;;;17.60;61.00;;;;;;6221219;28;20320;-78
2023/07/21 07:13:35;;;;;;;14.97;9.20;;;17.70;60.20;;;;;;6227296;28;20231;-80
2023/07/21 07:16:38;;;;;;;8.83;8.13;;;17.70;60.00;;;;;;6219667;28;20289;-77
2023/07/21 07:19:42;;;;;;;10.23;8.47;;;17.70;59.80;;;;;;6233354;28;20384;-80
2023/07/21 07:22:45;;;;;;;9.37;8.10;;;17.70;60.10;;;;;;6229020;28;20234;-80
2023/07/21 07:25:49;;;;;;;7.90;7.30;;;17.60;60.60;;;;;;6218059;28;20235;-79
2023/07/21 07:28:52;;;;;;;9.03;8.13;;;17.60;60.90;;;;;;6228523;28;20241;-80
2023/07/21 07:31:55;;;;;;;9.37;8.10;;;17.60;61.30;;;;;;6223621;28;20239;-81
2023/07/21 07:35:00;;;;;;;8.93;8.20;;;17.60;62.60;;;;;;6228425;28;20236;-77
2023/07/21 07:38:03;;;;;;;8.37;7.67;;;17.60;62.40;;;;;;6259442;28;20276;-82
2023/07/21 07:41:09;;;;;;;8.43;7.63;;;17.80;62.30;;;;;;6245304;28;20334;-79
2023/07/21 07:44:12;;;;;;;9.90;8.50;;;18.00;62.00;;;;;;6239801;28;20238;-77
2023/07/21 07:47:15;;;;;;;10.53;8.43;;;18.00;61.50;;;;;;6241387;28;20746;-80
2023/07/21 07:50:20;;;;;;;9.00;8.10;;;18.00;61.20;;;;;;6246013;28;20245;-79
2023/07/21 07:53:24;;;;;;;9.27;7.93;;;18.10;61.00;;;;;;6241790;28;20341;-77
2023/07/21 07:56:27;;;;;;;11.07;8.20;;;18.20;61.30;;;;;;6237180;28;20238;-80
2023/07/21 07:59:32;;;;;;;7.93;7.23;;;18.40;60.90;;;;;;6251054;28;20700;-76
2023/07/21 08:02:35;;;;;;;8.10;6.63;;;18.50;60.40;;;;;;6251687;28;20264;-79
2023/07/21 08:05:40;;;;;;;9.50;7.33;;;18.60;59.40;;;;;;6232251;28;20231;-80
2023/07/21 08:08:43;;;;;;;7.67;6.83;;;18.60;58.70;;;;;;6239231;28;20273;-81
2023/07/21 08:11:47;;;;;;;10.13;6.90;;;18.60;59.10;;;;;;6257303;28;20268;-78
2023/07/21 08:14:50;;;;;;;17.37;7.60;;;18.60;59.10;;;;;;6238610;28;20683;-80
2023/07/21 08:17:54;;;;;;;6.53;5.90;;;18.70;59.10;;;;;;6237655;28;20373;-80
2023/07/21 08:20:59;;;;;;;7.77;5.73;;;18.70;59.10;;;;;;6256119;28;20314;-81
2023/07/21 08:24:02;;;;;;;7.13;5.57;;;18.70;59.50;;;;;;6253838;28;20233;-79
2023/07/21 08:27:07;;;;;;;5.77;5.27;;;18.90;58.80;;;;;;6237577;28;20834;-81
2023/07/21 08:30:11;;;;;;;7.67;6.87;;;19.10;58.40;;;;;;6240965;28;20239;-79
2023/07/21 08:33:14;;;;;;;6.63;6.03;;;19.20;57.90;;;;;;6225563;28;20502;-79
2023/07/21 08:36:19;;;;;;;7.10;5.70;;;19.40;57.70;;;;;;6224574;28;20239;-81
2023/07/21 08:39:22;;;;;;;5.33;4.90;;;19.60;58.30;;;;;;6242909;28;20861;-80
2023/07/21 08:42:26;;;;;;;6.20;4.70;;;19.90;57.60;;;;;;6236234;28;20998;-79
2023/07/21 08:45:31;;;;;;;9.90;5.20;;;20.10;56.70;;;;;;6265138;28;20717;-78
2023/07/21 08:48:35;;;;;;;6.03;4.20;;;20.30;56.50;;;;;;6233661;28;20289;-79
2023/07/21 08:51:40;;;;;;;4.00;3.70;;;20.50;56.00;;;;;;6267088;28;20240;-77
2023/07/21 08:54:44;;;;;;;7.43;4.07;;;20.50;55.00;;;;;;6260103;28;20309;-79
2023/07/21 08:57:47;;;;;;;5.67;3.97;;;20.30;55.10;;;;;;6240965;28;20234;-79
2023/07/21 09:00:51;;;;;;;3.80;3.40;;;20.30;54.30;;;;;;6254989;28;20250;-82
2023/07/21 09:03:55;;;;;;;7.67;3.90;;;20.30;55.20;;;;;;6266663;28;20234;-80
2023/07/21 09:07:02;;;;;;;3.40;3.20;;;20.40;55.50;;;;;;6255324;28;20326;-77
2023/07/21 09:10:06;;;;;;;3.40;2.90;;;20.40;55.40;;;;;;6261098;28;20300;-81
2023/07/21 09:13:17;;;;;;;2.97;2.87;;;20.40;55.00;;;;;;6268718;28;20238;-81
2023/07/21 09:16:21;;;;;;;2.97;2.77;;;20.30;55.40;;;;;;6244675;28;20238;-80
2023/07/21 09:19:24;;;;;;;5.03;2.80;;;20.30;55.50;;;;;;6254122;28;20911;-80
2023/07/21 09:22:28;;;;;;;2.60;2.50;;;20.20;56.30;;;;;;6277771;28;20253;-79
2023/07/21 09:25:31;;;;;;;3.07;2.87;;;20.00;56.10;;;;;;6261386;28;20241;-79
2023/07/21 09:28:40;;;;;;;3.10;2.90;;;20.00;56.90;;;;;;6288512;28;20252;-78
2023/07/21 09:31:47;;;;;;;2.70;2.57;;;20.00;56.40;;;;;;6259300;28;20242;-79
2023/07/21 09:34:55;;;;;;;3.37;2.40;;;20.10;55.70;;;;;;6274245;28;20322;-79
2023/07/21 09:38:00;;;;;;;2.60;2.47;;;20.30;56.30;;;;;;6269037;28;20250;-79
2023/07/21 09:41:04;;;;;;;4.10;3.10;;;20.30;56.40;;;;;;6271207;28;20383;-81
2023/07/21 09:44:09;;;;;;;2.80;2.50;;;20.50;56.20;;;;;;6263526;28;20241;-79
2023/07/21 09:47:12;;;;;;;2.73;2.37;;;20.70;56.50;;;;;;6256302;28;20379;-79
2023/07/21 09:50:16;;;;;;;2.50;2.23;;;20.90;57.00;;;;;;6268993;28;20275;-79
2023/07/21 09:53:25;;;;;;;2.43;2.33;;;21.00;55.50;;;;;;6247020;28;20234;-78
2023/07/21 09:56:32;;;;;;;2.00;1.97;;;21.00;54.20;;;;;;6238467;28;20243;-80
2023/07/21 09:59:39;;;;;;;2.40;2.30;;;21.10;54.10;;;;;;6233409;28;20254;-78
2023/07/21 10:02:43;;;;;;;5.07;2.50;;;21.10;53.30;;;;;;6236327;28;20240;-79
2023/07/21 10:05:46;;;;;;;5.70;2.70;;;21.10;53.80;;;;;;6236760;28;20425;-79
2023/07/21 10:08:52;;;;;;;2.53;2.43;;;21.10;54.90;;;;;;6241844;28;20245;-78
2023/07/21 10:12:09;;;;;;;2.27;2.20;;;21.30;55.50;;;;;;6226812;28;20735;-80
2023/07/21 10:15:16;;;;;;;3.77;2.67;;;21.50;54.80;;;;;;6233649;28;20238;-81
2023/07/21 10:18:19;;;;;;;5.57;2.90;;;21.70;54.70;;;;;;6243115;28;20235;-79
2023/07/21 10:21:23;;;;;;;4.73;2.90;;;21.70;54.60;;;;;;6229263;28;20245;-80
2023/07/21 10:24:32;;;;;;;5.00;3.30;;;21.70;54.70;;;;;;6234527;28;20915;-79
2023/07/21 10:27:35;;;;;;;3.13;2.93;;;21.90;54.50;;;;;;6259611;28;20241;-82
2023/07/21 10:30:39;;;;;;;2.97;2.70;;;22.00;54.70;;;;;;6240442;28;20368;-79
2023/07/21 10:33:42;;;;;;;2.83;2.63;;;22.10;52.90;;;;;;6230851;28;20847;-78
2023/07/21 10:36:49;;;;;;;2.87;2.63;;;22.20;52.30;;;;;;6232064;28;20238;-78
2023/07/21 10:39:55;;;;;;;3.67;2.87;;;22.30;53.00;;;;;;6235003;28;20289;-79
2023/07/21 10:42:58;;;;;;;2.30;2.30;;;22.50;52.70;;;;;;6238285;28;20347;-78
2023/07/21 10:46:06;;;;;;;2.60;2.40;;;22.50;50.80;;;;;;6231088;28;20751;-81
2023/07/21 10:49:12;;;;;;;2.40;2.30;;;22.50;51.50;;;;;;6244187;28;20245;-79
2023/07/21 10:52:16;;;;;;;2.53;2.33;;;22.50;50.90;;;;;;6253361;28;20237;-77
2023/07/21 10:55:21;;;;;;;2.63;2.57;;;22.50;51.10;;;;;;6241723;28;20872;-81
2023/07/21 10:58:24;;;;;;;2.20;2.10;;;22.50;51.90;;;;;;6236201;28;20231;-78
2023/07/21 11:01:27;;;;;;;3.20;3.00;;;22.60;51.70;;;;;;6248313;28;20336;-80
2023/07/21 11:04:32;;;;;;;3.13;2.87;;;22.70;51.20;;;;;;6231833;28;20242;-78
2023/07/21 11:07:35;;;;;;;3.10;2.90;;;22.70;52.00;;;;;;6234775;28;20338;-81
2023/07/21 11:10:39;;;;;;;2.90;2.60;;;22.70;51.70;;;;;;6234917;28;20247;-81
2023/07/21 11:13:45;;;;;;;2.83;2.70;;;22.70;51.00;;;;;;6260793;28;20252;-81
2023/07/21 11:16:51;;;;;;;2.67;2.40;;;22.60;51.00;;;;;;6248638;28;20242;-81
2023/07/21 11:19:55;;;;;;;2.63;2.50;;;22.50;51.10;;;;;;6254049;28;20242;-78
2023/07/21 11:22:59;;;;;;;2.50;2.40;;;22.30;50.70;;;;;;6260382;28;20412;-79
2023/07/21 11:26:06;;;;;;;5.70;2.53;;;22.00;50.90;;;;;;6251294;28;20881;-77
2023/07/21 11:29:09;;;;;;;2.53;2.23;;;22.00;51.00;;;;;;6252451;28;20243;-77
2023/07/21 11:32:19;;;;;;;2.90;2.80;;;21.90;52.60;;;;;;6256269;28;20252;-80
2023/07/21 11:35:33;;;;;;;2.67;2.50;;;21.90;53.00;;;;;;6248114;28;20260;-79
2023/07/21 11:38:37;;;;;;;4.70;3.00;;;21.70;54.30;;;;;;6226702;28;20230;-77
2023/07/21 11:41:53;;;;;;;4.63;2.83;;;21.70;54.60;;;;;;6244571;28;20307;-78
2023/07/21 11:44:56;;;;;;;3.20;3.10;;;21.70;55.70;;;;;;6267273;28;20311;-80
2023/07/21 11:48:00;;;;;;;3.10;2.90;;;21.70;55.90;;;;;;6251301;28;20948;-80
2023/07/21 11:51:05;;;;;;;2.70;2.60;;;21.70;55.70;;;;;;6244990;28;20243;-79
2023/07/21 11:54:19;;;;;;;3.03;2.83;;;21.60;56.20;;;;;;6244343;28;20765;-79
2023/07/21 11:57:23;;;;;;;3.50;2.93;;;21.60;57.40;;;;;;6233842;28;20226;-80
2023/07/21 12:00:27;;;;;;;2.63;2.53;;;21.50;57.50;;;;;;6231527;28;20231;-80
2023/07/21 12:03:30;;;;;;;2.80;2.70;;;21.30;57.20;;;;;;6249597;28;20280;-79
2023/07/21 12:06:34;;;;;;;3.63;3.00;;;21.10;57.90;;;;;;6261666;28;20242;-78
2023/07/21 12:09:38;;;;;;;2.83;2.60;;;20.90;58.50;;;;;;6245131;28;20312;-77
2023/07/21 12:12:43;;;;;;;2.97;2.77;;;20.80;59.00;;;;;;6262791;28;20666;-81
2023/07/21 12:15:46;;;;;;;2.70;2.50;;;20.70;57.90;;;;;;6243890;28;20242;-80
2023/07/21 12:18:49;;;;;;;3.00;2.70;;;20.70;58.20;;;;;;6254676;28;20226;-80
2023/07/21 12:21:53;;;;;;;2.67;2.57;;;20.70;58.80;;;;;;6244978;28;20242;-79
2023/07/21 12:24:56;;;;;;;2.90;2.80;;;20.60;57.90;;;;;;6266142;28;20270;-80
2023/07/21 12:28:02;;;;;;;2.83;2.73;;;20.60;58.50;;;;;;6266678;28;20230;-78
2023/07/21 12:31:07;;;;;;;3.10;3.00;;;20.60;59.00;;;;;;6248840;28;20242;-79
2023/07/21 12:34:10;;;;;;;3.17;2.87;;;20.70;58.90;;;;;;6239512;28;20939;-79
2023/07/21 12:37:13;;;;;;;2.13;2.13;;;20.60;58.10;;;;;;6241854;28;20251;-81
2023/07/21 12:40:17;;;;;;;2.70;2.47;;;20.50;56.20;;;;;;6251744;28;20231;-81
2023/07/21 12:43:21;;;;;;;2.97;2.43;;;20.10;57.00;;;;;;6264191;28;20331;-80
2023/07/21 12:46:24;;;;;;;2.13;2.13;;;19.80;57.20;;;;;;6261433;28;20346;-80
2023/07/21 12:49:28;;;;;;;3.90;2.93;;;20.00;57.90;;;;;;6259020;28;20713;-80
2023/07/21 12:52:31;;;;;;;2.80;2.60;;;20.10;58.10;;;;;;6233611;28;20239;-80
2023/07/21 12:55:34;;;;;;;2.50;2.50;;;20.30;58.60;;;;;;6247114;28;20238;-78
2023/07/21 12:58:39;;;;;;;2.27;2.27;;;20.30;58.00;;;;;;6237597;28;20231;-79
2023/07/21 13:01:42;;;;;;;2.37;2.33;;;20.50;57.50;;;;;;6237701;28;20381;-78
2023/07/21 13:04:46;;;;;;;2.67;2.50;;;20.60;58.50;;;;;;6252757;28;20238;-79
2023/07/21 13:07:49;;;;;;;2.17;2.17;;;20.70;57.30;;;;;;6245126;28;20337;-79
2023/07/21 13:10:53;;;;;;;2.30;2.10;;;20.70;55.60;;;;;;6237470;28;20668;-78
2023/07/21 13:13:58;;;;;;;2.23;2.10;;;20.70;56.40;;;;;;6250723;28;20234;-77
2023/07/21 13:17:01;;;;;;;2.50;2.50;;;20.50;56.40;;;;;;6234952;28;20333;-79
2023/07/21 13:20:04;;;;;;;2.40;2.30;;;20.50;56.50;;;;;;6247842;28;20647;-77
2023/07/21 13:23:07;;;;;;;2.37;2.27;;;20.70;57.80;;;;;;6254423;28;20242;-79
2023/07/21 13:26:23;;;;;;;2.67;2.50;;;20.70;57.40;;;;;;6255134;28;21447;-76
2023/07/21 13:29:28;;;;;;;2.40;2.30;;;20.50;56.20;;;;;;6246324;28;20231;-78
2023/07/21 13:32:32;;;;;;;2.43;2.33;;;20.50;55.70;;;;;;6242767;28;20777;-75
2023/07/21 13:35:35;;;;;;;2.47;2.40;;;20.40;56.40;;;;;;6254505;28;20329;-77
2023/07/21 13:38:38;;;;;;;3.10;3.00;;;20.50;56.90;;;;;;6258646;28;20227;-76
2023/07/21 13:41:41;;;;;;;2.47;2.40;;;20.60;55.80;;;;;;6261311;28;20449;-79
2023/07/21 13:44:46;;;;;;;2.10;2.10;;;20.70;55.90;;;;;;6271219;28;20250;-79
2023/07/21 13:47:50;;;;;;;1.90;1.90;;;20.80;56.20;;;;;;6264131;28;20226;-78
2023/07/21 13:50:53;;;;;;;2.33;2.23;;;20.90;56.10;;;;;;6274787;28;20230;-78
2023/07/21 13:53:56;;;;;;;2.73;2.63;;;21.10;56.00;;;;;;6278218;28;20225;-76
2023/07/21 13:57:00;;;;;;;2.90;2.80;;;21.30;55.20;;;;;;6268957;28;20224;-79
2023/07/21 14:00:07;;;;;;;2.40;2.40;;;21.50;55.70;;;;;;6278352;28;20225;-76
2023/07/21 14:03:10;;;;;;;3.07;2.93;;;21.70;55.20;;;;;;6269920;28;20247;-77
2023/07/21 14:06:15;;;;;;;3.20;2.87;;;21.90;53.70;;;;;;6271326;28;20263;-77
2023/07/21 14:09:18;;;;;;;2.97;2.87;;;22.10;53.50;;;;;;6276001;28;20234;-78
2023/07/21 14:12:21;;;;;;;2.67;2.60;;;22.30;52.90;;;;;;6271263;28;20230;-76
2023/07/21 14:15:26;;;;;;;3.20;3.00;;;22.50;53.50;;;;;;6277659;28;20238;-75
2023/07/21 14:18:29;;;;;;;2.80;2.70;;;22.60;53.60;;;;;;6265454;28;20249;-75
2023/07/21 14:21:33;;;;;;;3.13;2.73;;;22.80;52.90;;;;;;6274577;28;20250;-75
2023/07/21 14:24:37;;;;;;;2.53;2.53;;;23.10;52.90;;;;;;6270656;28;20219;-78
2023/07/21 14:27:40;;;;;;;3.30;2.60;;;23.20;52.30;;;;;;6285964;28;20218;-75
2023/07/21 14:30:45;;;;;;;2.47;2.40;;;23.10;52.20;;;;;;6268148;28;20215;-76
2023/07/21 14:33:48;;;;;;;2.47;2.37;;;23.00;52.80;;;;;;6265322;28;20281;-77
2023/07/21 14:36:51;;;;;;;2.30;2.30;;;23.00;52.80;;;;;;6280429;28;20222;-75
2023/07/21 14:39:54;;;;;;;2.50;2.40;;;23.00;53.10;;;;;;6276984;28;20226;-78
2023/07/21 14:42:57;;;;;;;2.63;2.53;;;23.10;53.10;;;;;;6280802;28;20231;-76
2023/07/21 14:46:02;;;;;;;2.70;2.70;;;22.80;52.90;;;;;;6267593;28;20252;-75
2023/07/21 14:49:05;;;;;;;3.10;2.87;;;22.80;52.60;;;;;;6272070;28;20227;-75
2023/07/21 14:52:09;;;;;;;2.63;2.43;;;22.90;53.00;;;;;;6281758;28;20237;-75
2023/07/21 14:55:13;;;;;;;2.83;2.60;;;22.80;53.50;;;;;;6268550;28;20238;-74
2023/07/21 14:58:16;;;;;;;2.60;2.60;;;22.90;53.50;;;;;;6277308;28;20249;-80
2023/07/21 15:01:21;;;;;;;3.30;3.13;;;22.80;53.20;;;;;;6262084;28;20247;-75
2023/07/21 15:04:24;;;;;;;2.83;2.73;;;22.80;52.70;;;;;;6271136;28;20298;-77
2023/07/21 15:07:27;;;;;;;5.40;2.90;;;22.80;53.00;;;;;;6274995;28;20245;-76
2023/07/21 15:10:30;;;;;;;2.40;2.40;;;22.80;52.70;;;;;;6287938;28;20230;-75
2023/07/21 15:13:34;;;;;;;2.90;2.70;;;22.90;52.30;;;;;;6259199;28;21085;-79
2023/07/21 15:16:39;;;;;;;2.30;2.20;;;22.90;52.40;;;;;;6265507;28;20218;-79
2023/07/21 15:19:42;;;;;;;2.10;2.10;;;23.00;51.80;;;;;;6269228;28;20226;-77
2023/07/21 15:22:46;;;;;;;2.03;1.90;;;23.00;51.20;;;;;;6271123;28;20996;-77
2023/07/21 15:25:49;;;;;;;2.33;2.30;;;23.10;52.00;;;;;;6265360;28;20222;-81
2023/07/21 15:28:52;;;;;;;2.57;2.57;;;23.30;51.60;;;;;;6266424;28;20227;-77
2023/07/21 15:31:57;;;;;;;2.20;2.20;;;23.30;51.80;;;;;;6276423;28;20261;-76
2023/07/21 15:35:00;;;;;;;2.57;2.57;;;23.50;52.10;;;;;;6281011;28;20260;-80
2023/07/21 15:38:03;;;;;;;2.30;2.30;;;23.80;51.60;;;;;;6253303;28;20227;-78
2023/07/21 15:41:06;;;;;;;11.07;9.90;;;23.80;51.10;;;;;;6269220;28;20230;-76
2023/07/21 15:44:09;;;;;;;2.73;2.73;;;23.70;51.20;;;;;;6276663;28;20286;-76
2023/07/21 15:47:14;;;;;;;2.00;2.00;;;23.60;51.10;;;;;;6259125;28;20219;-78
2023/07/21 15:50:17;;;;;;;2.30;2.30;;;23.40;51.10;;;;;;6267739;28;20224;-76
2023/07/21 15:53:20;;;;;;;2.30;2.30;;;23.10;51.70;;;;;;6254024;28;20243;-75
2023/07/21 15:56:25;;;;;;;2.97;2.97;;;22.80;52.70;;;;;;6266399;28;20234;-77